Time;durP1;ratioP1;P1;durP2;ratioP2;P2;SDS_P1;SDS_P2;PMS_P1;PMS_P2;Temp;Humidity;BMP_temperature;BMP_pressure;BME280_temperature;BME280_humidity;BME280_pressure;Samples;Min_cycle;Max_cycle;Signal;HPM_P1;HPM_P2
2023/06/05 00:02:16;;;;;;;5.70;2.53;;;16.00;99.90;;;;;;5028695;28;20186;-69
2023/06/05 00:04:43;;;;;;;4.53;2.90;;;16.00;99.90;;;;;;5028751;28;20522;-69
2023/06/05 00:07:08;;;;;;;3.40;2.47;;;16.00;99.90;;;;;;5029200;28;20733;-69
2023/06/05 00:09:34;;;;;;;4.73;3.37;;;16.00;99.90;;;;;;5029253;28;20512;-69
2023/06/05 00:12:00;;;;;;;5.30;2.70;;;16.00;99.90;;;;;;5027434;28;20189;-69
2023/06/05 00:14:26;;;;;;;3.43;3.10;;;15.90;99.90;;;;;;5024755;28;20691;-69
2023/06/05 00:16:51;;;;;;;3.30;2.73;;;15.90;99.90;;;;;;5021018;28;20214;-69
2023/06/05 00:19:17;;;;;;;3.70;2.70;;;15.90;99.90;;;;;;5028911;28;20183;-68
2023/06/05 00:21:43;;;;;;;6.13;2.77;;;15.90;99.90;;;;;;5027185;28;20548;-69
2023/06/05 00:24:08;;;;;;;3.33;2.50;;;15.90;99.90;;;;;;5028455;28;20884;-69
2023/06/05 00:26:34;;;;;;;3.53;3.23;;;15.90;99.90;;;;;;5015148;28;20187;-69
2023/06/05 00:29:00;;;;;;;5.43;3.30;;;15.90;99.90;;;;;;5042867;28;20189;-69
2023/06/05 00:31:26;;;;;;;7.60;3.37;;;15.80;99.90;;;;;;5036361;28;20179;-69
2023/06/05 00:33:51;;;;;;;4.37;3.43;;;15.70;99.90;;;;;;5028504;28;20547;-69
2023/06/05 00:36:18;;;;;;;6.40;3.67;;;15.70;99.90;;;;;;5029095;28;20417;-69
2023/06/05 00:38:45;;;;;;;3.50;3.17;;;15.70;99.90;;;;;;5029039;28;20789;-69
2023/06/05 00:41:10;;;;;;;5.27;3.20;;;15.60;99.90;;;;;;5028885;28;20417;-69
2023/06/05 00:43:37;;;;;;;5.73;3.13;;;15.60;99.90;;;;;;5028038;28;20422;-69
2023/06/05 00:46:04;;;;;;;6.87;3.43;;;15.60;99.90;;;;;;5028928;28;20190;-69
2023/06/05 00:48:32;;;;;;;4.10;3.10;;;15.50;99.90;;;;;;5028739;28;20433;-69
2023/06/05 00:50:58;;;;;;;6.87;4.53;;;15.40;99.90;;;;;;5028925;28;20496;-69
2023/06/05 00:53:25;;;;;;;5.87;3.30;;;15.40;99.90;;;;;;5027903;28;21226;-69
2023/06/05 00:55:51;;;;;;;4.40;3.07;;;15.40;99.90;;;;;;5025217;28;20461;-69
2023/06/05 00:58:17;;;;;;;4.97;3.70;;;15.40;99.90;;;;;;5027311;28;20452;-69
2023/06/05 01:00:43;;;;;;;5.10;3.30;;;15.40;99.90;;;;;;5022786;28;20505;-69
2023/06/05 01:03:11;;;;;;;4.87;3.70;;;15.40;99.90;;;;;;5027410;28;20504;-69
2023/06/05 01:05:37;;;;;;;4.57;3.10;;;15.30;99.90;;;;;;5028289;28;20209;-69
2023/06/05 01:08:04;;;;;;;4.33;3.13;;;15.30;99.90;;;;;;5028389;28;20472;-69
2023/06/05 01:10:31;;;;;;;4.83;3.17;;;15.20;99.90;;;;;;5027155;28;20429;-69
2023/06/05 01:13:17;;;;;;;5.43;3.50;;;15.20;99.90;;;;;;5024552;28;20516;-69
2023/06/05 01:15:44;;;;;;;4.53;3.53;;;15.20;99.90;;;;;;5028343;28;20457;-69
2023/06/05 01:18:10;;;;;;;5.23;3.23;;;15.20;99.90;;;;;;5028084;28;20444;-69
2023/06/05 01:20:38;;;;;;;4.90;3.77;;;15.20;99.90;;;;;;5028319;28;20825;-69
2023/06/05 01:23:08;;;;;;;4.60;3.33;;;15.10;99.90;;;;;;5027248;28;20443;-69
2023/06/05 01:25:36;;;;;;;4.43;3.37;;;15.10;99.90;;;;;;5028851;28;20508;-69
2023/06/05 01:28:20;;;;;;;5.10;3.23;;;15.10;99.90;;;;;;5031908;28;20437;-69
2023/06/05 01:30:53;;;;;;;4.70;3.70;;;15.00;99.90;;;;;;5028024;28;20574;-69
2023/06/05 01:33:30;;;;;;;4.33;3.80;;;15.00;99.90;;;;;;5027128;28;20781;-69
2023/06/05 01:35:56;;;;;;;4.57;4.10;;;14.90;99.90;;;;;;5027140;28;20460;-69
2023/06/05 01:38:23;;;;;;;5.57;3.87;;;14.80;99.90;;;;;;5030630;28;20869;-69
2023/06/05 01:40:50;;;;;;;5.30;3.97;;;14.80;99.90;;;;;;5032087;28;20709;-69
2023/06/05 01:43:17;;;;;;;5.20;3.83;;;14.80;99.90;;;;;;5030890;28;20425;-69
2023/06/05 01:45:43;;;;;;;4.97;3.80;;;14.80;99.90;;;;;;5031757;28;20507;-69
2023/06/05 01:48:10;;;;;;;9.57;4.73;;;14.80;99.90;;;;;;5031829;28;20445;-69
2023/06/05 01:50:37;;;;;;;5.33;4.00;;;14.80;99.90;;;;;;5031823;28;20421;-69
2023/06/05 01:53:04;;;;;;;4.93;3.73;;;14.70;99.90;;;;;;5030924;28;20432;-69
2023/06/05 01:55:30;;;;;;;7.73;4.50;;;14.50;99.90;;;;;;5031527;28;20464;-69
2023/06/05 01:57:56;;;;;;;4.53;3.37;;;14.50;99.90;;;;;;5030565;28;20806;-69
2023/06/05 02:00:22;;;;;;;4.80;4.33;;;14.50;99.90;;;;;;5021296;28;20467;-69
2023/06/05 02:02:49;;;;;;;5.73;4.20;;;14.50;99.90;;;;;;5030331;28;20414;-69
2023/06/05 02:05:17;;;;;;;10.23;4.70;;;14.40;99.90;;;;;;5031042;28;20285;-69
2023/06/05 02:07:49;;;;;;;8.10;4.60;;;14.40;99.90;;;;;;5031289;28;20456;-69
2023/06/05 02:10:15;;;;;;;12.20;5.13;;;14.40;99.90;;;;;;5031470;28;20884;-69
2023/06/05 02:12:42;;;;;;;4.63;3.90;;;14.30;99.90;;;;;;5028546;28;20508;-69
2023/06/05 02:15:12;;;;;;;4.53;4.07;;;14.20;99.90;;;;;;5031000;28;20841;-69
2023/06/05 02:17:50;;;;;;;5.20;4.13;;;14.20;99.90;;;;;;5031139;28;20437;-70
2023/06/05 02:20:17;;;;;;;6.57;4.33;;;14.20;99.90;;;;;;5031258;28;20420;-69
2023/06/05 02:22:44;;;;;;;4.97;3.97;;;14.20;99.90;;;;;;5030478;28;20448;-69
2023/06/05 02:25:11;;;;;;;6.63;4.70;;;14.20;99.90;;;;;;5030962;28;20783;-69
2023/06/05 02:27:37;;;;;;;5.37;4.00;;;14.10;99.90;;;;;;5033447;28;20454;-69
2023/06/05 02:30:03;;;;;;;8.00;4.60;;;14.10;99.90;;;;;;5030966;28;20436;-69
2023/06/05 02:32:31;;;;;;;4.83;4.33;;;14.10;99.90;;;;;;5030067;28;20500;-69
2023/06/05 02:34:57;;;;;;;4.97;4.40;;;14.10;99.90;;;;;;5030657;28;20530;-69
2023/06/05 02:37:24;;;;;;;4.90;4.40;;;14.00;99.90;;;;;;5030889;28;20437;-69
2023/06/05 02:39:49;;;;;;;5.80;4.60;;;14.00;99.90;;;;;;5030963;28;20413;-69
2023/06/05 02:42:16;;;;;;;5.90;4.47;;;14.00;99.90;;;;;;5030208;28;20414;-69
2023/06/05 02:44:42;;;;;;;6.80;4.10;;;13.90;99.90;;;;;;5030332;28;20214;-70
2023/06/05 02:47:08;;;;;;;7.67;4.50;;;13.90;99.90;;;;;;5030645;28;20528;-69
2023/06/05 02:49:33;;;;;;;6.67;4.53;;;13.90;99.90;;;;;;5029410;28;20496;-69
2023/06/05 02:51:59;;;;;;;4.57;3.33;;;13.80;99.90;;;;;;5030130;28;20190;-69
2023/06/05 02:54:28;;;;;;;5.27;4.23;;;13.80;99.90;;;;;;5030186;28;20268;-69
2023/06/05 02:56:56;;;;;;;6.20;5.03;;;13.80;99.90;;;;;;5025676;28;20325;-69
2023/06/05 02:59:24;;;;;;;6.30;4.50;;;13.80;99.90;;;;;;5026510;28;20467;-69
2023/06/05 03:01:52;;;;;;;5.87;4.50;;;13.70;99.90;;;;;;5028900;28;20420;-69
2023/06/05 03:04:20;;;;;;;6.20;4.67;;;13.70;99.90;;;;;;5030167;28;20437;-69
2023/06/05 03:06:48;;;;;;;5.27;4.30;;;13.70;99.90;;;;;;5030500;28;20441;-70
2023/06/05 03:09:14;;;;;;;9.70;4.40;;;13.60;99.90;;;;;;5030496;28;20910;-70
2023/06/05 03:11:40;;;;;;;5.20;4.30;;;13.50;99.90;;;;;;5027338;28;20422;-69
2023/06/05 03:14:06;;;;;;;7.70;4.50;;;13.60;99.90;;;;;;5030112;28;20512;-69
2023/06/05 03:16:37;;;;;;;7.50;4.30;;;13.50;99.90;;;;;;5030440;28;20501;-70
2023/06/05 03:19:03;;;;;;;9.03;4.40;;;13.40;99.90;;;;;;5030418;28;20186;-69
2023/06/05 03:21:29;;;;;;;6.50;4.40;;;13.40;99.90;;;;;;5028453;28;20779;-69
2023/06/05 03:23:55;;;;;;;6.10;4.23;;;13.40;99.90;;;;;;5030010;28;21145;-69
2023/06/05 03:26:22;;;;;;;6.00;4.97;;;13.30;99.90;;;;;;5030301;28;20191;-69
2023/06/05 03:28:47;;;;;;;5.83;4.83;;;13.40;99.90;;;;;;5045225;28;20455;-69
2023/06/05 03:31:14;;;;;;;5.37;4.00;;;13.30;99.90;;;;;;5039662;28;20425;-70
2023/06/05 03:33:39;;;;;;;6.00;4.63;;;13.30;99.90;;;;;;5029660;28;20962;-69
2023/06/05 03:36:06;;;;;;;8.10;5.07;;;13.20;99.90;;;;;;5030175;28;20461;-69
2023/06/05 03:38:32;;;;;;;6.57;4.80;;;13.20;99.90;;;;;;5029896;28;20191;-70
2023/06/05 03:40:58;;;;;;;5.00;4.07;;;13.20;99.90;;;;;;5030027;28;20425;-69
2023/06/05 03:43:24;;;;;;;5.43;4.37;;;13.10;99.90;;;;;;5029022;28;20547;-70
2023/06/05 03:45:51;;;;;;;5.70;4.70;;;13.10;99.90;;;;;;5030000;28;20175;-69
2023/06/05 03:48:20;;;;;;;4.87;3.90;;;13.20;99.90;;;;;;5030052;28;20447;-69
2023/06/05 03:50:47;;;;;;;8.90;6.10;;;13.20;99.90;;;;;;5029952;28;20985;-69
2023/06/05 03:53:13;;;;;;;5.43;4.30;;;13.20;99.90;;;;;;5028842;28;20421;-69
2023/06/05 03:55:44;;;;;;;4.97;4.47;;;13.20;99.90;;;;;;5029519;28;20465;-69
2023/06/05 03:58:14;;;;;;;5.93;4.70;;;13.20;99.90;;;;;;5029332;28;20456;-69
2023/06/05 04:00:44;;;;;;;6.10;5.37;;;13.10;99.90;;;;;;5029234;28;20827;-69
2023/06/05 04:03:10;;;;;;;6.07;5.47;;;13.10;99.90;;;;;;5027498;28;20413;-69
2023/06/05 04:05:39;;;;;;;7.43;5.50;;;13.10;99.90;;;;;;5029524;28;20520;-69
2023/06/05 04:08:06;;;;;;;7.30;5.83;;;13.10;99.90;;;;;;5029574;28;20447;-69
2023/06/05 04:10:33;;;;;;;7.40;5.10;;;13.10;99.90;;;;;;5029617;28;20428;-69
2023/06/05 04:12:59;;;;;;;6.17;4.67;;;13.10;99.90;;;;;;5027958;28;20749;-69
2023/06/05 04:15:25;;;;;;;5.10;4.60;;;13.20;99.90;;;;;;5029477;28;20453;-69
2023/06/05 04:17:51;;;;;;;7.37;4.93;;;13.20;99.90;;;;;;5029500;28;20289;-69
2023/06/05 04:20:17;;;;;;;6.27;5.00;;;13.20;99.90;;;;;;5029648;28;20417;-69
2023/06/05 04:22:44;;;;;;;8.27;4.93;;;13.20;99.90;;;;;;5028838;28;20421;-69
2023/06/05 04:25:12;;;;;;;6.53;5.87;;;13.20;99.90;;;;;;5028857;28;20417;-69
2023/06/05 04:27:42;;;;;;;8.17;5.70;;;13.20;99.90;;;;;;5034737;28;20455;-69
2023/06/05 04:30:10;;;;;;;6.93;5.60;;;13.30;99.90;;;;;;5046667;28;21137;-69
2023/06/05 04:32:37;;;;;;;6.50;5.43;;;13.30;99.90;;;;;;5028694;28;20425;-69
2023/06/05 04:35:04;;;;;;;8.63;5.63;;;13.40;99.90;;;;;;5028641;28;20465;-69
2023/06/05 04:37:29;;;;;;;6.90;5.47;;;13.40;99.90;;;;;;5029210;28;20429;-69
2023/06/05 04:39:55;;;;;;;5.60;4.97;;;13.30;99.90;;;;;;5029005;28;20417;-69
2023/06/05 04:42:21;;;;;;;8.73;5.90;;;13.40;99.90;;;;;;5025339;28;20190;-69
2023/06/05 04:45:02;;;;;;;6.93;5.77;;;13.40;99.90;;;;;;5021727;28;20186;-69
2023/06/05 04:47:28;;;;;;;9.90;6.07;;;13.50;99.90;;;;;;5023290;28;21307;-70
2023/06/05 04:49:54;;;;;;;6.30;5.33;;;13.50;99.90;;;;;;5024756;28;20828;-69
2023/06/05 04:52:21;;;;;;;6.43;5.70;;;13.50;99.90;;;;;;5026660;28;20436;-69
2023/06/05 04:54:47;;;;;;;7.33;5.20;;;13.70;99.90;;;;;;5028185;28;20551;-70
2023/06/05 04:57:13;;;;;;;6.50;5.90;;;13.70;99.90;;;;;;5028558;28;20429;-69
2023/06/05 04:59:38;;;;;;;6.40;5.23;;;13.80;99.90;;;;;;5028883;28;20405;-69
2023/06/05 05:02:04;;;;;;;6.93;4.97;;;13.90;99.90;;;;;;5026253;28;20175;-69
2023/06/05 05:04:30;;;;;;;6.53;5.90;;;13.80;99.90;;;;;;5027092;28;20186;-69
2023/06/05 05:07:00;;;;;;;7.80;5.47;;;13.90;99.90;;;;;;5028815;28;20934;-69
2023/06/05 05:09:27;;;;;;;9.80;5.60;;;14.00;99.90;;;;;;5028618;28;20240;-69
2023/06/05 05:11:53;;;;;;;6.03;5.23;;;14.10;99.90;;;;;;5027600;28;20941;-69
2023/06/05 05:14:19;;;;;;;7.30;6.07;;;14.20;99.90;;;;;;5031824;28;20441;-69
2023/06/05 05:16:44;;;;;;;7.10;5.30;;;14.30;99.90;;;;;;5031865;28;20198;-69
2023/06/05 05:19:10;;;;;;;7.10;6.20;;;14.40;99.90;;;;;;5032362;28;20174;-69
2023/06/05 05:21:37;;;;;;;10.40;5.70;;;14.40;99.90;;;;;;5031781;28;20187;-69
2023/06/05 05:24:03;;;;;;;9.00;5.63;;;14.50;99.90;;;;;;5032204;28;20170;-69
2023/06/05 05:26:30;;;;;;;8.40;6.27;;;14.60;99.90;;;;;;5030967;28;20502;-69
2023/06/05 05:28:55;;;;;;;7.47;5.70;;;14.70;99.90;;;;;;5032136;28;20802;-69
2023/06/05 05:31:22;;;;;;;7.97;6.10;;;14.80;99.90;;;;;;5031724;28;20420;-69
2023/06/05 05:33:48;;;;;;;7.30;6.03;;;14.90;99.90;;;;;;5032013;28;20190;-69
2023/06/05 05:36:14;;;;;;;7.10;6.40;;;15.00;99.90;;;;;;5032300;28;20471;-69
2023/06/05 05:38:40;;;;;;;7.57;6.67;;;15.10;99.90;;;;;;5030844;28;20433;-69
2023/06/05 05:41:06;;;;;;;6.73;5.60;;;15.10;99.90;;;;;;5032163;28;20445;-69
2023/06/05 05:43:32;;;;;;;7.10;5.90;;;15.20;99.90;;;;;;5031198;28;20526;-69
2023/06/05 05:45:57;;;;;;;6.37;5.40;;;15.20;99.90;;;;;;5032021;28;20182;-69
2023/06/05 05:48:23;;;;;;;6.70;5.80;;;15.40;99.90;;;;;;5027982;28;20249;-69
2023/06/05 05:50:49;;;;;;;6.77;6.07;;;15.30;99.90;;;;;;5031544;28;20183;-69
2023/06/05 05:53:15;;;;;;;9.00;5.90;;;15.40;99.90;;;;;;5023586;28;20187;-69
2023/06/05 05:55:41;;;;;;;6.30;5.50;;;15.30;99.90;;;;;;5031300;28;21044;-69
2023/06/05 05:58:07;;;;;;;6.00;5.40;;;15.40;99.90;;;;;;5030921;28;20281;-69
2023/06/05 06:00:34;;;;;;;7.40;6.30;;;15.40;99.90;;;;;;5030334;28;20175;-69
2023/06/05 06:03:00;;;;;;;8.83;6.97;;;15.40;99.90;;;;;;5029294;28;20587;-69
2023/06/05 06:05:25;;;;;;;9.73;6.40;;;15.50;99.90;;;;;;5025760;28;20437;-69
2023/06/05 06:07:52;;;;;;;8.70;5.67;;;15.50;99.90;;;;;;5028518;28;20214;-69
2023/06/05 06:10:17;;;;;;;6.00;5.17;;;15.60;99.90;;;;;;5028533;28;20599;-69
2023/06/05 06:12:45;;;;;;;6.93;6.10;;;15.70;99.90;;;;;;5027117;28;20452;-69
2023/06/05 06:15:11;;;;;;;9.03;6.00;;;15.80;99.90;;;;;;5018181;28;20578;-69
2023/06/05 06:17:37;;;;;;;7.90;5.90;;;15.80;99.90;;;;;;5021604;28;20436;-69
2023/06/05 06:20:05;;;;;;;8.10;5.27;;;15.90;99.90;;;;;;5029951;28;20496;-69
2023/06/05 06:22:31;;;;;;;9.03;5.90;;;15.90;99.90;;;;;;5029441;28;20418;-69
2023/06/05 06:24:57;;;;;;;6.00;5.40;;;16.10;99.90;;;;;;5029447;28;20417;-69
2023/06/05 06:27:23;;;;;;;6.50;5.70;;;16.20;99.90;;;;;;5033236;28;20197;-69
2023/06/05 06:29:54;;;;;;;6.03;5.40;;;16.30;99.90;;;;;;5049942;28;20204;-69
2023/06/05 06:32:21;;;;;;;6.57;5.80;;;16.30;99.90;;;;;;5028207;28;20428;-69
2023/06/05 06:34:46;;;;;;;10.47;6.50;;;16.20;99.90;;;;;;5029329;28;20464;-69
2023/06/05 06:37:16;;;;;;;8.67;7.10;;;16.20;99.90;;;;;;5029915;28;20797;-69
2023/06/05 06:39:42;;;;;;;9.63;7.10;;;16.10;99.90;;;;;;5020706;28;20185;-70
2023/06/05 06:42:12;;;;;;;8.67;6.70;;;16.20;99.90;;;;;;5018322;28;20417;-69
2023/06/05 06:44:38;;;;;;;8.80;6.97;;;16.30;99.90;;;;;;5010480;28;20426;-69
2023/06/05 06:47:04;;;;;;;9.37;6.77;;;16.40;99.90;;;;;;5008882;28;20477;-69
2023/06/05 06:49:30;;;;;;;9.23;6.47;;;16.50;99.90;;;;;;5010059;28;20442;-69
2023/06/05 06:51:56;;;;;;;8.20;6.43;;;16.50;99.90;;;;;;5008115;28;20530;-70
2023/06/05 06:54:22;;;;;;;9.80;6.70;;;16.60;99.90;;;;;;5007529;28;20413;-69
2023/06/05 06:56:49;;;;;;;7.67;6.87;;;16.70;99.90;;;;;;5009507;28;20772;-69
2023/06/05 06:59:16;;;;;;;7.90;6.40;;;16.80;99.90;;;;;;5014299;28;20197;-69
2023/06/05 07:01:45;;;;;;;7.47;6.17;;;16.80;99.90;;;;;;5017427;28;20421;-69
2023/06/05 07:04:16;;;;;;;7.80;6.40;;;16.90;99.90;;;;;;4980278;28;1098094;-69
2023/06/05 07:06:43;;;;;;;7.83;6.37;;;17.00;99.90;;;;;;5029826;28;20273;-69
2023/06/05 07:09:09;;;;;;;8.93;6.23;;;17.00;99.90;;;;;;5030082;28;20422;-69
2023/06/05 07:11:35;;;;;;;9.07;7.53;;;17.10;99.90;;;;;;5028672;28;20417;-69
2023/06/05 07:14:00;;;;;;;7.30;6.53;;;17.10;99.90;;;;;;5029713;28;20253;-69
2023/06/05 07:16:26;;;;;;;9.10;7.23;;;17.10;99.90;;;;;;5029940;28;20217;-69
2023/06/05 07:18:53;;;;;;;11.40;7.50;;;17.20;99.90;;;;;;5029963;28;20228;-69
2023/06/05 07:21:19;;;;;;;7.60;6.87;;;17.30;99.90;;;;;;5028079;28;20175;-69
2023/06/05 07:23:48;;;;;;;7.03;6.00;;;17.40;99.90;;;;;;5029479;28;20411;-70
2023/06/05 07:26:15;;;;;;;9.10;6.80;;;17.50;99.90;;;;;;5030423;28;20453;-69
2023/06/05 07:28:41;;;;;;;6.60;5.57;;;17.60;99.90;;;;;;5043863;28;20782;-70
2023/06/05 07:31:08;;;;;;;7.43;6.10;;;17.70;99.90;;;;;;5040135;28;20425;-69
2023/06/05 07:33:34;;;;;;;7.80;6.17;;;17.80;99.90;;;;;;5028860;28;20187;-69
2023/06/05 07:36:00;;;;;;;13.53;7.90;;;17.90;99.90;;;;;;5028822;28;20457;-69
2023/06/05 07:38:26;;;;;;;8.03;6.30;;;17.90;99.90;;;;;;5029465;28;20698;-69
2023/06/05 07:40:52;;;;;;;9.10;5.93;;;17.90;99.90;;;;;;5029603;28;20409;-69
2023/06/05 07:43:18;;;;;;;7.10;5.90;;;17.80;99.90;;;;;;5021720;28;20213;-70
2023/06/05 07:45:44;;;;;;;14.10;7.10;;;17.90;99.90;;;;;;5009840;28;20823;-69
2023/06/05 07:48:09;;;;;;;9.80;7.13;;;17.90;99.90;;;;;;5008334;28;20441;-69
2023/06/05 07:50:35;;;;;;;9.93;5.90;;;17.90;99.90;;;;;;5009798;28;20407;-69
2023/06/05 07:53:01;;;;;;;7.97;6.50;;;17.90;99.90;;;;;;5009871;28;20174;-69
2023/06/05 07:55:27;;;;;;;7.57;5.27;;;17.90;99.90;;;;;;5011816;28;20493;-70
2023/06/05 07:57:54;;;;;;;6.73;5.00;;;18.10;99.90;;;;;;5008759;28;20890;-69
2023/06/05 08:00:20;;;;;;;7.97;5.77;;;18.20;99.90;;;;;;5008546;28;20493;-69
2023/06/05 08:02:48;;;;;;;7.67;5.53;;;18.20;99.90;;;;;;5007934;28;20422;-69
2023/06/05 08:05:16;;;;;;;10.10;5.23;;;18.20;99.90;;;;;;5008233;28;20444;-70
2023/06/05 08:07:42;;;;;;;8.23;5.73;;;18.20;99.90;;;;;;5008535;28;20540;-69
2023/06/05 08:10:08;;;;;;;11.47;5.60;;;18.30;99.90;;;;;;5008668;28;20493;-69
2023/06/05 08:12:34;;;;;;;8.37;5.37;;;18.30;99.90;;;;;;5008650;28;20254;-69
2023/06/05 08:15:00;;;;;;;8.17;6.27;;;18.40;99.90;;;;;;5008904;28;20549;-70
2023/06/05 08:17:28;;;;;;;12.60;6.00;;;18.40;99.90;;;;;;5009357;28;20222;-70
2023/06/05 08:19:54;;;;;;;9.00;5.67;;;18.40;99.90;;;;;;5009270;28;20529;-69
2023/06/05 08:22:20;;;;;;;7.50;4.50;;;18.40;99.90;;;;;;5008544;28;20406;-69
2023/06/05 08:24:48;;;;;;;7.50;5.50;;;18.40;99.90;;;;;;5008693;28;20183;-69
2023/06/05 08:27:14;;;;;;;8.40;5.17;;;18.50;99.90;;;;;;5013292;28;20803;-69
2023/06/05 08:29:39;;;;;;;7.53;5.20;;;18.50;99.90;;;;;;5048632;28;20475;-69
2023/06/05 08:32:05;;;;;;;9.73;5.63;;;18.60;99.90;;;;;;5030479;28;20193;-69
2023/06/05 08:34:32;;;;;;;6.83;4.60;;;18.80;99.90;;;;;;5028208;28;20199;-69
2023/06/05 08:36:58;;;;;;;8.20;5.73;;;18.90;99.90;;;;;;5028379;28;20433;-69
2023/06/05 08:39:27;;;;;;;5.40;4.40;;;18.90;99.90;;;;;;5028663;28;20567;-69
2023/06/05 08:41:59;;;;;;;7.60;4.90;;;19.00;99.90;;;;;;5028053;28;20949;-69
2023/06/05 08:44:26;;;;;;;5.90;4.33;;;19.00;99.90;;;;;;5028186;28;20421;-69
2023/06/05 08:46:58;;;;;;;7.27;4.37;;;19.10;99.90;;;;;;5028434;28;20425;-69
2023/06/05 08:49:29;;;;;;;11.03;4.03;;;19.20;99.90;;;;;;5028562;28;20413;-69
2023/06/05 08:52:02;;;;;;;5.20;3.77;;;19.30;99.90;;;;;;5028047;28;20410;-69
2023/06/05 08:54:36;;;;;;;6.17;4.80;;;19.50;99.90;;;;;;5028024;28;20413;-69
2023/06/05 08:57:03;;;;;;;7.50;4.27;;;19.60;99.90;;;;;;5027231;28;20527;-69
2023/06/05 08:59:29;;;;;;;6.97;4.77;;;19.70;99.90;;;;;;5028399;28;20427;-69
2023/06/05 09:01:55;;;;;;;8.47;4.47;;;19.90;99.90;;;;;;5027788;28;20460;-69
2023/06/05 09:04:21;;;;;;;11.13;4.27;;;19.90;99.90;;;;;;5027859;28;20433;-69
2023/06/05 09:06:47;;;;;;;6.27;4.40;;;20.10;99.90;;;;;;5028199;28;21098;-69
2023/06/05 09:09:15;;;;;;;6.33;4.80;;;20.20;99.90;;;;;;5028407;28;20175;-69
2023/06/05 09:11:40;;;;;;;9.33;5.00;;;20.40;99.90;;;;;;5027603;28;20171;-69
2023/06/05 09:14:06;;;;;;;5.73;5.20;;;20.40;99.90;;;;;;5028116;28;21088;-69
2023/06/05 09:16:42;;;;;;;7.37;5.13;;;20.50;99.90;;;;;;5028072;28;20206;-69
2023/06/05 09:19:08;;;;;;;8.77;5.27;;;20.70;99.40;;;;;;5028468;28;20174;-70
2023/06/05 09:21:35;;;;;;;7.00;5.20;;;20.80;99.10;;;;;;5027484;28;20413;-70
2023/06/05 09:24:13;;;;;;;5.80;4.07;;;20.90;99.50;;;;;;5027569;28;20965;-70
2023/06/05 09:26:48;;;;;;;10.30;5.27;;;21.00;98.10;;;;;;5028267;28;20440;-69
2023/06/05 09:29:20;;;;;;;8.03;5.23;;;21.10;98.20;;;;;;5046722;28;20435;-70
2023/06/05 09:31:45;;;;;;;7.80;5.20;;;21.10;99.00;;;;;;5032495;28;20436;-69
2023/06/05 09:34:20;;;;;;;14.60;5.30;;;21.30;99.50;;;;;;5027752;28;20397;-69
2023/06/05 09:36:46;;;;;;;7.77;5.80;;;21.30;99.90;;;;;;5027915;28;20202;-70
2023/06/05 09:39:16;;;;;;;7.03;5.90;;;21.40;99.90;;;;;;5027964;28;20956;-70
2023/06/05 09:41:46;;;;;;;6.73;5.73;;;21.50;99.70;;;;;;5027588;28;20624;-70
2023/06/05 09:44:11;;;;;;;7.90;5.93;;;21.60;99.20;;;;;;5027594;28;21118;-69
2023/06/05 09:47:15;;;;;;;8.47;5.93;;;21.70;98.30;;;;;;5026630;28;20397;-70
2023/06/05 09:49:40;;;;;;;8.50;5.90;;;21.70;98.20;;;;;;5005424;28;20183;-70
2023/06/05 09:52:08;;;;;;;7.23;5.10;;;21.80;98.00;;;;;;5022838;28;20431;-70
2023/06/05 09:54:38;;;;;;;11.37;5.93;;;21.80;98.00;;;;;;5027697;28;20198;-70
2023/06/05 09:57:06;;;;;;;10.07;6.87;;;21.80;97.90;;;;;;5026497;28;20927;-70
2023/06/05 09:59:34;;;;;;;8.73;5.60;;;21.80;98.10;;;;;;5030388;28;20420;-70
2023/06/05 10:02:06;;;;;;;9.17;5.60;;;21.90;97.20;;;;;;5030492;28;20409;-70
2023/06/05 10:04:45;;;;;;;7.10;5.53;;;21.90;97.50;;;;;;5030655;28;20420;-69
2023/06/05 10:07:12;;;;;;;7.40;5.10;;;22.00;97.50;;;;;;5031030;28;20515;-69
2023/06/05 10:09:39;;;;;;;6.20;4.90;;;22.10;98.40;;;;;;5031199;28;20906;-70
2023/06/05 10:12:08;;;;;;;8.33;5.03;;;22.20;98.10;;;;;;5029388;28;20902;-70
2023/06/05 10:14:35;;;;;;;6.40;5.20;;;22.30;96.20;;;;;;5029341;28;20960;-70
2023/06/05 10:17:02;;;;;;;9.50;5.70;;;22.40;95.60;;;;;;5031078;28;20436;-70
2023/06/05 10:19:28;;;;;;;9.57;5.70;;;22.40;96.70;;;;;;5031139;28;20444;-70
2023/06/05 10:21:54;;;;;;;5.20;4.67;;;22.40;96.10;;;;;;5030511;28;20444;-69
2023/06/05 10:24:33;;;;;;;6.07;5.30;;;22.40;96.30;;;;;;5030666;28;20490;-69
2023/06/05 10:27:11;;;;;;;6.80;4.87;;;22.40;96.00;;;;;;5031115;28;20507;-69
2023/06/05 10:30:01;;;;;;;5.20;4.43;;;22.50;95.80;;;;;;5049862;28;20404;-69
2023/06/05 10:32:32;;;;;;;4.83;4.40;;;22.60;96.80;;;;;;5010596;28;20422;-69
2023/06/05 10:35:30;;;;;;;6.87;5.00;;;22.70;96.40;;;;;;5011069;28;20561;-69
2023/06/05 10:38:20;;;;;;;9.33;4.70;;;22.80;96.50;;;;;;5027650;28;20495;-69
2023/06/05 10:40:55;;;;;;;9.80;4.87;;;22.90;96.10;;;;;;5028443;28;20429;-70
2023/06/05 10:43:30;;;;;;;6.43;4.90;;;23.00;94.00;;;;;;5025525;28;20424;-70
2023/06/05 10:46:01;;;;;;;10.00;4.53;;;23.00;94.90;;;;;;5026201;28;20792;-70
2023/06/05 10:49:05;;;;;;;8.10;5.20;;;23.20;95.10;;;;;;5030680;28;20441;-70
2023/06/05 10:51:43;;;;;;;7.50;5.07;;;23.30;94.60;;;;;;5027195;28;20425;-70
2023/06/05 10:54:16;;;;;;;4.70;4.30;;;23.30;94.30;;;;;;5030150;28;20425;-70
2023/06/05 10:56:57;;;;;;;8.17;4.80;;;23.40;94.80;;;;;;5030399;28;20426;-70
2023/06/05 10:59:26;;;;;;;4.90;4.30;;;23.50;94.10;;;;;;5030437;28;20417;-70
2023/06/05 11:02:04;;;;;;;7.73;4.93;;;23.60;93.90;;;;;;5023254;28;20829;-70
2023/06/05 11:04:48;;;;;;;5.87;4.30;;;23.60;94.00;;;;;;5026885;28;20429;-70
2023/06/05 11:07:24;;;;;;;7.60;4.60;;;23.60;94.30;;;;;;5030263;28;20491;-70
2023/06/05 11:10:05;;;;;;;5.97;4.33;;;23.60;93.10;;;;;;5027373;28;20956;-70
2023/06/05 11:12:42;;;;;;;4.53;3.47;;;23.70;94.00;;;;;;5023226;28;20439;-70
2023/06/05 11:15:10;;;;;;;8.77;3.70;;;23.70;92.20;;;;;;5025625;28;20811;-70
2023/06/05 11:17:44;;;;;;;6.20;3.77;;;23.80;90.10;;;;;;5028982;28;20456;-70
2023/06/05 11:20:28;;;;;;;3.70;3.10;;;23.80;90.20;;;;;;5029039;28;20538;-70
2023/06/05 11:22:53;;;;;;;4.47;4.03;;;23.90;87.80;;;;;;5021800;28;20413;-70
2023/06/05 11:25:24;;;;;;;4.30;3.67;;;23.90;88.30;;;;;;5028149;28;20421;-70
2023/06/05 11:27:59;;;;;;;3.40;3.10;;;24.00;86.80;;;;;;5033088;28;20274;-70
2023/06/05 11:30:33;;;;;;;5.13;4.13;;;24.00;86.50;;;;;;5025838;28;20432;-70
2023/06/05 11:33:15;;;;;;;5.40;3.80;;;24.10;83.10;;;;;;5028626;28;20413;-70
2023/06/05 11:35:46;;;;;;;5.23;4.00;;;24.10;83.20;;;;;;5029242;28;20460;-70
2023/06/05 11:38:16;;;;;;;3.53;3.17;;;24.10;81.70;;;;;;5028730;28;20443;-70
2023/06/05 11:40:43;;;;;;;3.50;3.20;;;24.10;79.10;;;;;;5028278;28;20413;-70
2023/06/05 11:43:11;;;;;;;5.13;3.37;;;24.10;80.80;;;;;;5028282;28;20413;-70
2023/06/05 11:45:39;;;;;;;3.50;3.20;;;24.10;79.40;;;;;;5029213;28;20949;-70
2023/06/05 11:48:11;;;;;;;3.13;2.93;;;24.20;79.10;;;;;;5028982;28;20456;-70
2023/06/05 11:50:51;;;;;;;9.63;4.37;;;24.20;77.60;;;;;;5029178;28;20417;-70
2023/06/05 11:53:17;;;;;;;3.70;3.40;;;24.30;83.60;;;;;;5028195;28;21008;-70
2023/06/05 11:55:53;;;;;;;3.50;3.20;;;24.40;80.20;;;;;;5029404;28;20452;-70
2023/06/05 11:58:30;;;;;;;4.33;3.50;;;24.40;80.70;;;;;;5029351;28;20952;-70
2023/06/05 12:01:21;;;;;;;3.77;3.40;;;24.50;81.50;;;;;;5029517;28;20409;-70
2023/06/05 12:03:49;;;;;;;3.97;3.57;;;24.50;79.20;;;;;;5029138;28;20861;-70
2023/06/05 12:06:16;;;;;;;4.60;3.80;;;24.60;73.60;;;;;;5029585;28;20843;-70
2023/06/05 12:08:42;;;;;;;5.00;4.10;;;24.50;77.30;;;;;;5028083;28;20429;-70
2023/06/05 12:11:26;;;;;;;4.77;3.90;;;24.50;77.90;;;;;;5029333;28;20412;-70
2023/06/05 12:13:56;;;;;;;5.90;3.80;;;24.50;76.30;;;;;;5027837;28;20417;-70
2023/06/05 12:16:35;;;;;;;3.20;2.90;;;24.50;75.30;;;;;;5029126;28;20449;-70
2023/06/05 12:19:03;;;;;;;3.60;3.30;;;24.50;71.20;;;;;;5029001;28;20413;-70
2023/06/05 12:21:28;;;;;;;5.17;4.40;;;24.60;74.30;;;;;;5028275;28;20413;-70
2023/06/05 12:24:02;;;;;;;5.00;4.00;;;24.60;73.50;;;;;;5028869;28;20799;-70
2023/06/05 12:26:32;;;;;;;4.17;3.77;;;24.50;74.70;;;;;;5027753;28;20709;-70
2023/06/05 12:29:05;;;;;;;5.70;3.30;;;24.60;70.80;;;;;;5045610;28;20452;-70
2023/06/05 12:31:39;;;;;;;4.30;3.67;;;24.70;71.70;;;;;;5035747;28;20425;-70
2023/06/05 12:34:05;;;;;;;4.00;3.60;;;24.70;72.40;;;;;;5028654;28;20425;-70
2023/06/05 12:36:41;;;;;;;3.53;3.20;;;24.80;72.90;;;;;;5028832;28;20953;-70
2023/06/05 12:39:07;;;;;;;5.53;3.70;;;24.80;72.50;;;;;;5029221;28;20420;-70
2023/06/05 12:41:33;;;;;;;4.33;3.67;;;24.80;70.20;;;;;;5028397;28;20432;-70
2023/06/05 12:44:00;;;;;;;4.13;3.40;;;24.80;71.80;;;;;;5028568;28;20401;-70
2023/06/05 12:46:26;;;;;;;9.10;3.90;;;24.80;72.50;;;;;;5028691;28;20780;-70
2023/06/05 12:48:52;;;;;;;4.80;4.30;;;24.80;73.10;;;;;;5028786;28;20405;-70
2023/06/05 12:51:17;;;;;;;5.43;3.97;;;24.80;69.30;;;;;;5028276;28;20576;-70
2023/06/05 12:53:43;;;;;;;4.37;3.70;;;24.80;71.80;;;;;;5024312;28;20200;-70